sensor_id;sensor_type;location;lat;lon;timestamp;temperature;humidity
49379;DHT22;35254;47.990;-1.608;2022-12-20T00:01:15;19.80;54.80
49379;DHT22;35254;47.990;-1.608;2022-12-20T00:03:42;19.80;54.70
49379;DHT22;35254;47.990;-1.608;2022-12-20T00:06:09;19.80;54.70
49379;DHT22;35254;47.990;-1.608;2022-12-20T00:08:36;19.80;54.60
49379;DHT22;35254;47.990;-1.608;2022-12-20T00:11:04;19.80;54.70
49379;DHT22;35254;47.990;-1.608;2022-12-20T00:13:30;19.80;54.50
49379;DHT22;35254;47.990;-1.608;2022-12-20T00:16:08;19.80;54.40
49379;DHT22;35254;47.990;-1.608;2022-12-20T00:18:35;19.80;54.40
49379;DHT22;35254;47.990;-1.608;2022-12-20T00:21:02;19.80;54.50
49379;DHT22;35254;47.990;-1.608;2022-12-20T00:23:27;19.80;54.40
49379;DHT22;35254;47.990;-1.608;2022-12-20T00:26:10;19.80;54.40
49379;DHT22;35254;47.990;-1.608;2022-12-20T00:28:37;19.80;54.30
49379;DHT22;35254;47.990;-1.608;2022-12-20T00:31:04;19.80;54.40
49379;DHT22;35254;47.990;-1.608;2022-12-20T00:33:31;19.80;54.30
49379;DHT22;35254;47.990;-1.608;2022-12-20T00:35:57;19.80;54.40
49379;DHT22;35254;47.990;-1.608;2022-12-20T00:38:23;19.80;54.30
49379;DHT22;35254;47.990;-1.608;2022-12-20T00:41:04;19.80;54.20
49379;DHT22;35254;47.990;-1.608;2022-12-20T00:43:30;19.80;54.10
49379;DHT22;35254;47.990;-1.608;2022-12-20T00:45:57;19.80;53.90
49379;DHT22;35254;47.990;-1.608;2022-12-20T00:48:23;19.80;54.10
49379;DHT22;35254;47.990;-1.608;2022-12-20T00:50:49;19.70;54.20
49379;DHT22;35254;47.990;-1.608;2022-12-20T00:53:15;19.70;54.20
49379;DHT22;35254;47.990;-1.608;2022-12-20T00:55:45;19.70;54.10
49379;DHT22;35254;47.990;-1.608;2022-12-20T00:58:11;19.70;54.10
49379;DHT22;35254;47.990;-1.608;2022-12-20T01:00:38;19.70;54.00
49379;DHT22;35254;47.990;-1.608;2022-12-20T01:03:05;19.70;54.00
49379;DHT22;35254;47.990;-1.608;2022-12-20T01:05:31;19.70;54.10
49379;DHT22;35254;47.990;-1.608;2022-12-20T01:07:56;19.70;53.90
49379;DHT22;35254;47.990;-1.608;2022-12-20T01:10:22;19.70;53.90
49379;DHT22;35254;47.990;-1.608;2022-12-20T01:12:48;19.70;53.90
49379;DHT22;35254;47.990;-1.608;2022-12-20T01:15:14;19.70;53.90
49379;DHT22;35254;47.990;-1.608;2022-12-20T01:17:40;19.70;53.90
49379;DHT22;35254;47.990;-1.608;2022-12-20T01:20:06;19.70;53.90
49379;DHT22;35254;47.990;-1.608;2022-12-20T01:22:32;19.70;53.80
49379;DHT22;35254;47.990;-1.608;2022-12-20T01:24:58;19.70;53.90
49379;DHT22;35254;47.990;-1.608;2022-12-20T01:27:24;19.70;53.90
49379;DHT22;35254;47.990;-1.608;2022-12-20T01:29:50;19.70;53.80
49379;DHT22;35254;47.990;-1.608;2022-12-20T01:32:16;19.70;53.70
49379;DHT22;35254;47.990;-1.608;2022-12-20T01:34:42;19.70;53.70
49379;DHT22;35254;47.990;-1.608;2022-12-20T01:37:07;19.70;53.60
49379;DHT22;35254;47.990;-1.608;2022-12-20T01:39:33;19.70;53.80
49379;DHT22;35254;47.990;-1.608;2022-12-20T01:41:59;19.70;53.80
49379;DHT22;35254;47.990;-1.608;2022-12-20T01:46:51;19.70;53.80
49379;DHT22;35254;47.990;-1.608;2022-12-20T01:54:26;19.70;53.60
49379;DHT22;35254;47.990;-1.608;2022-12-20T01:57:01;19.70;53.60
49379;DHT22;35254;47.990;-1.608;2022-12-20T01:59:28;19.70;53.70
49379;DHT22;35254;47.990;-1.608;2022-12-20T02:01:58;19.70;53.60
49379;DHT22;35254;47.990;-1.608;2022-12-20T02:04:26;19.70;53.70
49379;DHT22;35254;47.990;-1.608;2022-12-20T02:06:51;19.70;53.70
49379;DHT22;35254;47.990;-1.608;2022-12-20T02:09:17;19.70;53.60
49379;DHT22;35254;47.990;-1.608;2022-12-20T02:28:45;19.70;53.80
49379;DHT22;35254;47.990;-1.608;2022-12-20T02:31:19;19.70;53.70
49379;DHT22;35254;47.990;-1.608;2022-12-20T02:33:47;19.70;53.80
49379;DHT22;35254;47.990;-1.608;2022-12-20T02:36:18;19.70;53.80
49379;DHT22;35254;47.990;-1.608;2022-12-20T02:38:43;19.70;53.80
49379;DHT22;35254;47.990;-1.608;2022-12-20T02:41:25;19.70;53.90
49379;DHT22;35254;47.990;-1.608;2022-12-20T02:44:02;19.70;53.90
49379;DHT22;35254;47.990;-1.608;2022-12-20T02:46:48;19.70;54.00
49379;DHT22;35254;47.990;-1.608;2022-12-20T02:49:18;19.70;54.00
49379;DHT22;35254;47.990;-1.608;2022-12-20T02:51:47;19.70;53.90
49379;DHT22;35254;47.990;-1.608;2022-12-20T02:54:15;19.70;54.00
49379;DHT22;35254;47.990;-1.608;2022-12-20T02:56:50;19.70;54.00
49379;DHT22;35254;47.990;-1.608;2022-12-20T02:59:29;19.70;53.90
49379;DHT22;35254;47.990;-1.608;2022-12-20T03:01:56;19.70;54.10
49379;DHT22;35254;47.990;-1.608;2022-12-20T03:04:25;19.70;54.00
49379;DHT22;35254;47.990;-1.608;2022-12-20T03:09:26;19.70;53.80
49379;DHT22;35254;47.990;-1.608;2022-12-20T03:11:52;19.60;53.90
49379;DHT22;35254;47.990;-1.608;2022-12-20T03:14:18;19.70;53.90
49379;DHT22;35254;47.990;-1.608;2022-12-20T03:16:44;19.60;53.80
49379;DHT22;35254;47.990;-1.608;2022-12-20T03:19:09;19.70;53.90
49379;DHT22;35254;47.990;-1.608;2022-12-20T03:21:35;19.70;53.90
49379;DHT22;35254;47.990;-1.608;2022-12-20T03:24:01;19.70;53.90
49379;DHT22;35254;47.990;-1.608;2022-12-20T03:26:26;19.70;54.00
49379;DHT22;35254;47.990;-1.608;2022-12-20T03:28:52;19.70;54.00
49379;DHT22;35254;47.990;-1.608;2022-12-20T03:31:18;19.60;54.00
49379;DHT22;35254;47.990;-1.608;2022-12-20T03:33:43;19.70;54.10
49379;DHT22;35254;47.990;-1.608;2022-12-20T03:36:09;19.60;54.00
49379;DHT22;35254;47.990;-1.608;2022-12-20T03:38:35;19.60;54.20
49379;DHT22;35254;47.990;-1.608;2022-12-20T03:41:00;19.70;54.20
49379;DHT22;35254;47.990;-1.608;2022-12-20T03:43:26;19.70;54.20
49379;DHT22;35254;47.990;-1.608;2022-12-20T03:45:52;19.60;54.20
49379;DHT22;35254;47.990;-1.608;2022-12-20T03:48:17;19.60;54.20
49379;DHT22;35254;47.990;-1.608;2022-12-20T03:50:43;19.60;54.10
49379;DHT22;35254;47.990;-1.608;2022-12-20T03:53:09;19.60;54.00
49379;DHT22;35254;47.990;-1.608;2022-12-20T03:55:34;19.60;54.00
49379;DHT22;35254;47.990;-1.608;2022-12-20T03:58:00;19.70;54.00
49379;DHT22;35254;47.990;-1.608;2022-12-20T04:00:25;19.60;53.90
49379;DHT22;35254;47.990;-1.608;2022-12-20T04:02:51;19.60;54.00
49379;DHT22;35254;47.990;-1.608;2022-12-20T04:05:17;19.70;54.10
49379;DHT22;35254;47.990;-1.608;2022-12-20T04:07:43;19.60;54.20
49379;DHT22;35254;47.990;-1.608;2022-12-20T04:10:10;19.60;53.90
49379;DHT22;35254;47.990;-1.608;2022-12-20T04:12:36;19.60;54.10
49379;DHT22;35254;47.990;-1.608;2022-12-20T04:15:02;19.60;54.00
49379;DHT22;35254;47.990;-1.608;2022-12-20T04:17:28;19.60;54.10
49379;DHT22;35254;47.990;-1.608;2022-12-20T04:19:54;19.60;54.10
49379;DHT22;35254;47.990;-1.608;2022-12-20T04:22:20;19.60;54.00
49379;DHT22;35254;47.990;-1.608;2022-12-20T04:24:45;19.60;54.20
49379;DHT22;35254;47.990;-1.608;2022-12-20T04:27:11;19.60;54.40
49379;DHT22;35254;47.990;-1.608;2022-12-20T04:29:37;19.60;54.30
49379;DHT22;35254;47.990;-1.608;2022-12-20T04:32:03;19.60;54.50
49379;DHT22;35254;47.990;-1.608;2022-12-20T04:34:28;19.60;54.70
49379;DHT22;35254;47.990;-1.608;2022-12-20T04:36:54;19.60;54.70
49379;DHT22;35254;47.990;-1.608;2022-12-20T04:39:20;19.60;54.60
49379;DHT22;35254;47.990;-1.608;2022-12-20T04:41:45;19.50;54.70
49379;DHT22;35254;47.990;-1.608;2022-12-20T04:44:11;19.60;54.60
49379;DHT22;35254;47.990;-1.608;2022-12-20T04:46:37;19.50;54.60
49379;DHT22;35254;47.990;-1.608;2022-12-20T04:49:03;19.50;54.50
49379;DHT22;35254;47.990;-1.608;2022-12-20T04:51:28;19.50;54.30
49379;DHT22;35254;47.990;-1.608;2022-12-20T04:53:55;19.50;54.20
49379;DHT22;35254;47.990;-1.608;2022-12-20T04:56:23;19.50;54.20
49379;DHT22;35254;47.990;-1.608;2022-12-20T04:58:51;19.50;54.20
49379;DHT22;35254;47.990;-1.608;2022-12-20T05:01:17;19.50;54.10
49379;DHT22;35254;47.990;-1.608;2022-12-20T05:03:44;19.50;54.40
49379;DHT22;35254;47.990;-1.608;2022-12-20T05:06:10;19.60;54.30
49379;DHT22;35254;47.990;-1.608;2022-12-20T05:08:36;19.50;54.40
49379;DHT22;35254;47.990;-1.608;2022-12-20T05:11:03;19.50;54.60
49379;DHT22;35254;47.990;-1.608;2022-12-20T05:13:29;19.50;54.60
49379;DHT22;35254;47.990;-1.608;2022-12-20T05:15:56;19.50;54.60
49379;DHT22;35254;47.990;-1.608;2022-12-20T05:18:22;19.50;54.40
49379;DHT22;35254;47.990;-1.608;2022-12-20T05:20:48;19.60;54.60
49379;DHT22;35254;47.990;-1.608;2022-12-20T05:23:34;19.50;54.90
49379;DHT22;35254;47.990;-1.608;2022-12-20T05:26:20;19.50;54.80
49379;DHT22;35254;47.990;-1.608;2022-12-20T05:28:47;19.50;54.50
49379;DHT22;35254;47.990;-1.608;2022-12-20T05:31:13;19.50;54.70
49379;DHT22;35254;47.990;-1.608;2022-12-20T05:33:39;19.50;54.80
49379;DHT22;35254;47.990;-1.608;2022-12-20T05:36:04;19.50;55.60
49379;DHT22;35254;47.990;-1.608;2022-12-20T05:38:30;19.50;55.00
49379;DHT22;35254;47.990;-1.608;2022-12-20T05:40:56;19.50;55.30
49379;DHT22;35254;47.990;-1.608;2022-12-20T05:43:21;19.50;55.10
49379;DHT22;35254;47.990;-1.608;2022-12-20T05:45:49;19.50;55.10
49379;DHT22;35254;47.990;-1.608;2022-12-20T05:48:16;19.50;55.10
49379;DHT22;35254;47.990;-1.608;2022-12-20T05:50:43;19.40;55.10
49379;DHT22;35254;47.990;-1.608;2022-12-20T05:53:10;19.50;55.10
49379;DHT22;35254;47.990;-1.608;2022-12-20T05:55:36;19.50;54.80
49379;DHT22;35254;47.990;-1.608;2022-12-20T05:58:05;19.50;54.90
49379;DHT22;35254;47.990;-1.608;2022-12-20T06:00:30;19.40;55.00
49379;DHT22;35254;47.990;-1.608;2022-12-20T06:02:56;19.50;54.90
49379;DHT22;35254;47.990;-1.608;2022-12-20T06:05:22;19.40;54.90
49379;DHT22;35254;47.990;-1.608;2022-12-20T06:07:47;19.50;54.90
49379;DHT22;35254;47.990;-1.608;2022-12-20T06:10:13;19.50;55.00
49379;DHT22;35254;47.990;-1.608;2022-12-20T06:12:39;19.50;55.20
49379;DHT22;35254;47.990;-1.608;2022-12-20T06:15:04;19.50;55.20
49379;DHT22;35254;47.990;-1.608;2022-12-20T06:17:30;19.50;55.50
49379;DHT22;35254;47.990;-1.608;2022-12-20T06:19:56;19.50;55.30
49379;DHT22;35254;47.990;-1.608;2022-12-20T06:22:21;19.40;55.30
49379;DHT22;35254;47.990;-1.608;2022-12-20T06:24:47;19.40;55.40
49379;DHT22;35254;47.990;-1.608;2022-12-20T06:27:13;19.40;55.30
49379;DHT22;35254;47.990;-1.608;2022-12-20T06:29:38;19.40;55.30
49379;DHT22;35254;47.990;-1.608;2022-12-20T06:32:04;19.50;55.50
49379;DHT22;35254;47.990;-1.608;2022-12-20T06:34:31;19.40;55.80
49379;DHT22;35254;47.990;-1.608;2022-12-20T06:36:56;19.40;55.50
49379;DHT22;35254;47.990;-1.608;2022-12-20T06:39:22;19.40;55.70
49379;DHT22;35254;47.990;-1.608;2022-12-20T06:41:48;19.40;55.60
49379;DHT22;35254;47.990;-1.608;2022-12-20T06:44:13;19.40;55.90
49379;DHT22;35254;47.990;-1.608;2022-12-20T06:46:39;19.40;55.60
49379;DHT22;35254;47.990;-1.608;2022-12-20T06:49:04;19.40;55.70
49379;DHT22;35254;47.990;-1.608;2022-12-20T06:51:30;19.40;55.50
49379;DHT22;35254;47.990;-1.608;2022-12-20T06:53:56;19.40;55.20
49379;DHT22;35254;47.990;-1.608;2022-12-20T06:56:21;19.40;55.10
49379;DHT22;35254;47.990;-1.608;2022-12-20T06:58:47;19.40;54.90
49379;DHT22;35254;47.990;-1.608;2022-12-20T07:01:13;19.40;54.70
49379;DHT22;35254;47.990;-1.608;2022-12-20T07:03:38;19.40;54.60
49379;DHT22;35254;47.990;-1.608;2022-12-20T07:06:04;19.40;54.60
49379;DHT22;35254;47.990;-1.608;2022-12-20T07:08:30;19.40;54.60
49379;DHT22;35254;47.990;-1.608;2022-12-20T07:11:05;19.40;54.90
49379;DHT22;35254;47.990;-1.608;2022-12-20T07:13:31;19.40;55.20
49379;DHT22;35254;47.990;-1.608;2022-12-20T07:16:01;19.40;55.30
49379;DHT22;35254;47.990;-1.608;2022-12-20T07:18:27;19.40;55.40
49379;DHT22;35254;47.990;-1.608;2022-12-20T07:20:53;19.50;54.90
49379;DHT22;35254;47.990;-1.608;2022-12-20T07:23:18;19.50;55.50
49379;DHT22;35254;47.990;-1.608;2022-12-20T07:25:55;19.50;56.00
49379;DHT22;35254;47.990;-1.608;2022-12-20T07:28:21;19.50;55.90
49379;DHT22;35254;47.990;-1.608;2022-12-20T07:30:47;19.50;55.90
49379;DHT22;35254;47.990;-1.608;2022-12-20T07:33:13;19.50;55.80
49379;DHT22;35254;47.990;-1.608;2022-12-20T07:35:39;19.60;55.80
49379;DHT22;35254;47.990;-1.608;2022-12-20T07:38:04;19.60;55.90
49379;DHT22;35254;47.990;-1.608;2022-12-20T07:40:30;19.60;55.90
49379;DHT22;35254;47.990;-1.608;2022-12-20T07:42:56;19.50;55.70
49379;DHT22;35254;47.990;-1.608;2022-12-20T07:45:22;19.50;55.30
49379;DHT22;35254;47.990;-1.608;2022-12-20T07:47:47;19.50;55.30
49379;DHT22;35254;47.990;-1.608;2022-12-20T07:50:13;19.50;55.30
49379;DHT22;35254;47.990;-1.608;2022-12-20T07:52:40;19.50;55.20
49379;DHT22;35254;47.990;-1.608;2022-12-20T07:55:08;19.50;55.20
49379;DHT22;35254;47.990;-1.608;2022-12-20T07:57:56;19.50;55.20
49379;DHT22;35254;47.990;-1.608;2022-12-20T08:00:23;19.50;55.30
49379;DHT22;35254;47.990;-1.608;2022-12-20T08:02:57;19.50;55.30
49379;DHT22;35254;47.990;-1.608;2022-12-20T08:05:25;19.50;55.40
49379;DHT22;35254;47.990;-1.608;2022-12-20T08:07:53;19.50;55.30
49379;DHT22;35254;47.990;-1.608;2022-12-20T08:10:20;19.50;55.30
49379;DHT22;35254;47.990;-1.608;2022-12-20T08:12:47;19.50;55.40
49379;DHT22;35254;47.990;-1.608;2022-12-20T08:15:13;19.50;55.60
49379;DHT22;35254;47.990;-1.608;2022-12-20T08:17:39;19.50;55.60
49379;DHT22;35254;47.990;-1.608;2022-12-20T08:20:05;19.50;55.50
49379;DHT22;35254;47.990;-1.608;2022-12-20T08:22:33;19.50;55.30
49379;DHT22;35254;47.990;-1.608;2022-12-20T08:24:59;19.50;55.40
49379;DHT22;35254;47.990;-1.608;2022-12-20T08:27:24;19.50;55.40
49379;DHT22;35254;47.990;-1.608;2022-12-20T08:29:50;19.50;55.60
49379;DHT22;35254;47.990;-1.608;2022-12-20T08:32:16;19.50;55.80
49379;DHT22;35254;47.990;-1.608;2022-12-20T08:34:41;19.50;55.80
49379;DHT22;35254;47.990;-1.608;2022-12-20T08:37:07;19.40;55.70
49379;DHT22;35254;47.990;-1.608;2022-12-20T08:39:33;19.40;55.70
49379;DHT22;35254;47.990;-1.608;2022-12-20T08:41:59;19.40;55.70
49379;DHT22;35254;47.990;-1.608;2022-12-20T08:44:25;19.40;55.80
49379;DHT22;35254;47.990;-1.608;2022-12-20T08:46:50;19.50;55.50
49379;DHT22;35254;47.990;-1.608;2022-12-20T08:49:16;19.50;55.50
49379;DHT22;35254;47.990;-1.608;2022-12-20T08:51:42;19.50;55.70
49379;DHT22;35254;47.990;-1.608;2022-12-20T08:54:08;19.40;55.70
49379;DHT22;35254;47.990;-1.608;2022-12-20T08:56:33;19.50;55.60
49379;DHT22;35254;47.990;-1.608;2022-12-20T08:58:59;19.40;56.00
49379;DHT22;35254;47.990;-1.608;2022-12-20T09:01:24;19.40;55.80
49379;DHT22;35254;47.990;-1.608;2022-12-20T09:03:51;19.40;56.20
49379;DHT22;35254;47.990;-1.608;2022-12-20T09:06:20;19.40;56.10
49379;DHT22;35254;47.990;-1.608;2022-12-20T09:08:46;19.40;56.50
49379;DHT22;35254;47.990;-1.608;2022-12-20T09:11:21;19.40;56.20
49379;DHT22;35254;47.990;-1.608;2022-12-20T09:13:49;19.40;55.70
49379;DHT22;35254;47.990;-1.608;2022-12-20T09:16:17;19.40;56.30
49379;DHT22;35254;47.990;-1.608;2022-12-20T09:18:47;19.40;56.40
49379;DHT22;35254;47.990;-1.608;2022-12-20T09:21:13;19.40;56.30
49379;DHT22;35254;47.990;-1.608;2022-12-20T09:23:39;19.40;56.20
49379;DHT22;35254;47.990;-1.608;2022-12-20T09:26:09;19.40;55.90
49379;DHT22;35254;47.990;-1.608;2022-12-20T09:28:35;19.40;56.00
49379;DHT22;35254;47.990;-1.608;2022-12-20T09:31:03;19.40;56.20
49379;DHT22;35254;47.990;-1.608;2022-12-20T09:33:29;19.40;56.10
49379;DHT22;35254;47.990;-1.608;2022-12-20T09:35:57;19.40;56.20
49379;DHT22;35254;47.990;-1.608;2022-12-20T09:38:23;19.40;56.50
49379;DHT22;35254;47.990;-1.608;2022-12-20T09:40:55;19.40;56.80
49379;DHT22;35254;47.990;-1.608;2022-12-20T09:43:22;19.40;56.80
49379;DHT22;35254;47.990;-1.608;2022-12-20T09:45:51;19.40;56.50
49379;DHT22;35254;47.990;-1.608;2022-12-20T09:48:23;19.40;56.80
49379;DHT22;35254;47.990;-1.608;2022-12-20T09:56:42;19.40;55.70
49379;DHT22;35254;47.990;-1.608;2022-12-20T09:59:14;19.40;56.10
49379;DHT22;35254;47.990;-1.608;2022-12-20T10:01:44;19.40;56.10
49379;DHT22;35254;47.990;-1.608;2022-12-20T10:04:25;19.40;56.60
49379;DHT22;35254;47.990;-1.608;2022-12-20T10:12:58;19.40;55.90
49379;DHT22;35254;47.990;-1.608;2022-12-20T10:15:39;19.40;55.90
49379;DHT22;35254;47.990;-1.608;2022-12-20T10:21:10;19.40;56.00
49379;DHT22;35254;47.990;-1.608;2022-12-20T10:23:49;19.40;56.00
49379;DHT22;35254;47.990;-1.608;2022-12-20T10:26:20;19.40;55.90
49379;DHT22;35254;47.990;-1.608;2022-12-20T10:28:46;19.40;56.40
49379;DHT22;35254;47.990;-1.608;2022-12-20T10:31:16;19.40;56.20
49379;DHT22;35254;47.990;-1.608;2022-12-20T10:33:44;19.40;56.00
49379;DHT22;35254;47.990;-1.608;2022-12-20T10:36:26;19.40;56.40
49379;DHT22;35254;47.990;-1.608;2022-12-20T10:39:06;19.40;57.00
49379;DHT22;35254;47.990;-1.608;2022-12-20T10:44:27;19.50;60.70
49379;DHT22;35254;47.990;-1.608;2022-12-20T10:46:56;19.60;64.70
49379;DHT22;35254;47.990;-1.608;2022-12-20T10:54:42;19.70;65.90
49379;DHT22;35254;47.990;-1.608;2022-12-20T10:59:38;19.70;64.80
49379;DHT22;35254;47.990;-1.608;2022-12-20T11:07:36;19.70;61.70
49379;DHT22;35254;47.990;-1.608;2022-12-20T11:10:23;19.60;62.30
49379;DHT22;35254;47.990;-1.608;2022-12-20T11:15:21;19.80;65.30
49379;DHT22;35254;47.990;-1.608;2022-12-20T11:17:50;19.80;64.00
49379;DHT22;35254;47.990;-1.608;2022-12-20T11:26:14;19.70;62.80
49379;DHT22;35254;47.990;-1.608;2022-12-20T11:53:31;19.70;62.40
49379;DHT22;35254;47.990;-1.608;2022-12-20T11:56:02;19.70;62.60
49379;DHT22;35254;47.990;-1.608;2022-12-20T11:58:59;19.70;63.70
49379;DHT22;35254;47.990;-1.608;2022-12-20T12:01:37;19.70;63.80
49379;DHT22;35254;47.990;-1.608;2022-12-20T12:04:13;19.70;63.10
49379;DHT22;35254;47.990;-1.608;2022-12-20T12:06:44;19.70;64.80
49379;DHT22;35254;47.990;-1.608;2022-12-20T12:12:01;19.80;63.60
49379;DHT22;35254;47.990;-1.608;2022-12-20T12:14:34;19.70;62.80
49379;DHT22;35254;47.990;-1.608;2022-12-20T12:17:23;19.80;62.30
49379;DHT22;35254;47.990;-1.608;2022-12-20T12:19:53;19.80;61.60
49379;DHT22;35254;47.990;-1.608;2022-12-20T12:22:26;19.80;61.50
49379;DHT22;35254;47.990;-1.608;2022-12-20T12:24:56;19.80;61.10
49379;DHT22;35254;47.990;-1.608;2022-12-20T12:27:26;19.70;60.80
49379;DHT22;35254;47.990;-1.608;2022-12-20T12:29:53;19.70;60.60
49379;DHT22;35254;47.990;-1.608;2022-12-20T12:35:13;19.80;60.90
49379;DHT22;35254;47.990;-1.608;2022-12-20T12:43:45;19.70;60.20
49379;DHT22;35254;47.990;-1.608;2022-12-20T12:46:19;19.70;60.30
49379;DHT22;35254;47.990;-1.608;2022-12-20T12:48:52;19.60;61.40
49379;DHT22;35254;47.990;-1.608;2022-12-20T12:51:23;19.60;61.70
49379;DHT22;35254;47.990;-1.608;2022-12-20T12:53:53;19.60;62.60
49379;DHT22;35254;47.990;-1.608;2022-12-20T13:04:25;19.60;61.10
49379;DHT22;35254;47.990;-1.608;2022-12-20T13:07:02;19.60;61.00
49379;DHT22;35254;47.990;-1.608;2022-12-20T13:20:31;19.50;60.70
49379;DHT22;35254;47.990;-1.608;2022-12-20T13:25:44;19.40;60.50
49379;DHT22;35254;47.990;-1.608;2022-12-20T13:41:45;19.50;59.90
49379;DHT22;35254;47.990;-1.608;2022-12-20T13:46:59;19.50;59.40
49379;DHT22;35254;47.990;-1.608;2022-12-20T13:49:38;19.40;59.50
49379;DHT22;35254;47.990;-1.608;2022-12-20T13:54:41;19.50;59.60
49379;DHT22;35254;47.990;-1.608;2022-12-20T13:57:15;19.40;59.30
49379;DHT22;35254;47.990;-1.608;2022-12-20T13:59:45;19.40;59.20
49379;DHT22;35254;47.990;-1.608;2022-12-20T14:02:19;19.40;59.30
49379;DHT22;35254;47.990;-1.608;2022-12-20T14:04:57;19.40;59.20
49379;DHT22;35254;47.990;-1.608;2022-12-20T14:07:24;19.40;59.10
49379;DHT22;35254;47.990;-1.608;2022-12-20T14:09:59;19.40;58.90
49379;DHT22;35254;47.990;-1.608;2022-12-20T14:12:26;19.40;59.10
49379;DHT22;35254;47.990;-1.608;2022-12-20T14:14:52;19.40;58.70
49379;DHT22;35254;47.990;-1.608;2022-12-20T14:17:30;19.40;58.90
49379;DHT22;35254;47.990;-1.608;2022-12-20T14:22:50;19.40;59.20
49379;DHT22;35254;47.990;-1.608;2022-12-20T14:25:33;19.40;59.50
49379;DHT22;35254;47.990;-1.608;2022-12-20T14:27:59;19.40;59.40
49379;DHT22;35254;47.990;-1.608;2022-12-20T14:32:54;19.40;59.30
49379;DHT22;35254;47.990;-1.608;2022-12-20T14:35:21;19.40;59.20
49379;DHT22;35254;47.990;-1.608;2022-12-20T14:37:59;19.50;58.80
49379;DHT22;35254;47.990;-1.608;2022-12-20T14:40:26;19.40;58.80
49379;DHT22;35254;47.990;-1.608;2022-12-20T14:42:52;19.40;58.80
49379;DHT22;35254;47.990;-1.608;2022-12-20T14:45:24;19.40;58.70
49379;DHT22;35254;47.990;-1.608;2022-12-20T14:48:00;19.40;58.80
49379;DHT22;35254;47.990;-1.608;2022-12-20T14:50:36;19.40;58.60
49379;DHT22;35254;47.990;-1.608;2022-12-20T14:53:03;19.40;58.30
49379;DHT22;35254;47.990;-1.608;2022-12-20T14:55:38;19.30;58.20
49379;DHT22;35254;47.990;-1.608;2022-12-20T14:58:30;19.30;58.20
49379;DHT22;35254;47.990;-1.608;2022-12-20T15:01:19;19.30;57.90
49379;DHT22;35254;47.990;-1.608;2022-12-20T15:03:54;19.30;58.30
49379;DHT22;35254;47.990;-1.608;2022-12-20T15:08:56;19.40;58.00
49379;DHT22;35254;47.990;-1.608;2022-12-20T15:11:22;19.30;57.90
49379;DHT22;35254;47.990;-1.608;2022-12-20T15:13:52;19.30;58.00
49379;DHT22;35254;47.990;-1.608;2022-12-20T15:16:21;19.30;58.30
49379;DHT22;35254;47.990;-1.608;2022-12-20T15:18:55;19.30;58.10
49379;DHT22;35254;47.990;-1.608;2022-12-20T15:21:32;19.30;58.00
49379;DHT22;35254;47.990;-1.608;2022-12-20T15:24:03;19.30;58.10
49379;DHT22;35254;47.990;-1.608;2022-12-20T15:26:33;19.30;58.10
49379;DHT22;35254;47.990;-1.608;2022-12-20T15:28:59;19.30;57.60
49379;DHT22;35254;47.990;-1.608;2022-12-20T15:31:26;19.40;57.20
49379;DHT22;35254;47.990;-1.608;2022-12-20T15:33:52;19.40;57.70
49379;DHT22;35254;47.990;-1.608;2022-12-20T15:36:21;19.40;57.60
49379;DHT22;35254;47.990;-1.608;2022-12-20T15:38:48;19.40;57.40
49379;DHT22;35254;47.990;-1.608;2022-12-20T15:41:30;19.40;57.40
49379;DHT22;35254;47.990;-1.608;2022-12-20T15:46:23;19.40;57.60
49379;DHT22;35254;47.990;-1.608;2022-12-20T15:48:48;19.30;57.40
49379;DHT22;35254;47.990;-1.608;2022-12-20T15:51:27;19.40;57.50
49379;DHT22;35254;47.990;-1.608;2022-12-20T15:53:54;19.30;57.30
49379;DHT22;35254;47.990;-1.608;2022-12-20T15:56:22;19.40;57.00
49379;DHT22;35254;47.990;-1.608;2022-12-20T15:58:49;19.40;57.40
49379;DHT22;35254;47.990;-1.608;2022-12-20T16:01:19;19.30;57.40
49379;DHT22;35254;47.990;-1.608;2022-12-20T16:03:45;19.40;58.60
49379;DHT22;35254;47.990;-1.608;2022-12-20T16:06:11;19.40;58.30
49379;DHT22;35254;47.990;-1.608;2022-12-20T16:08:38;19.40;59.20
49379;DHT22;35254;47.990;-1.608;2022-12-20T16:11:05;19.40;59.30
49379;DHT22;35254;47.990;-1.608;2022-12-20T16:13:31;19.40;59.20
49379;DHT22;35254;47.990;-1.608;2022-12-20T16:15:57;19.40;58.20
49379;DHT22;35254;47.990;-1.608;2022-12-20T16:18:24;19.40;58.10
49379;DHT22;35254;47.990;-1.608;2022-12-20T16:20:51;19.40;57.90
49379;DHT22;35254;47.990;-1.608;2022-12-20T16:23:19;19.40;58.50
49379;DHT22;35254;47.990;-1.608;2022-12-20T16:25:47;19.40;59.50
49379;DHT22;35254;47.990;-1.608;2022-12-20T16:28:14;19.40;58.30
49379;DHT22;35254;47.990;-1.608;2022-12-20T16:30:40;19.40;59.90
49379;DHT22;35254;47.990;-1.608;2022-12-20T16:33:05;19.50;62.70
49379;DHT22;35254;47.990;-1.608;2022-12-20T16:35:35;19.50;61.60
49379;DHT22;35254;47.990;-1.608;2022-12-20T16:38:04;19.50;61.20
49379;DHT22;35254;47.990;-1.608;2022-12-20T16:40:31;19.50;60.30
49379;DHT22;35254;47.990;-1.608;2022-12-20T16:42:58;19.50;59.20
49379;DHT22;35254;47.990;-1.608;2022-12-20T16:45:26;19.40;59.00
49379;DHT22;35254;47.990;-1.608;2022-12-20T16:47:53;19.40;58.60
49379;DHT22;35254;47.990;-1.608;2022-12-20T16:50:20;19.50;58.50
49379;DHT22;35254;47.990;-1.608;2022-12-20T16:52:46;19.50;58.30
49379;DHT22;35254;47.990;-1.608;2022-12-20T16:55:23;19.50;58.30
49379;DHT22;35254;47.990;-1.608;2022-12-20T16:57:49;19.50;58.20
49379;DHT22;35254;47.990;-1.608;2022-12-20T17:00:25;19.50;58.00
49379;DHT22;35254;47.990;-1.608;2022-12-20T17:02:51;19.50;58.20
49379;DHT22;35254;47.990;-1.608;2022-12-20T17:05:29;19.50;58.20
49379;DHT22;35254;47.990;-1.608;2022-12-20T17:07:56;19.60;58.40
49379;DHT22;35254;47.990;-1.608;2022-12-20T17:10:23;19.60;58.50
49379;DHT22;35254;47.990;-1.608;2022-12-20T17:12:50;19.60;59.00
49379;DHT22;35254;47.990;-1.608;2022-12-20T17:15:25;19.60;58.90
49379;DHT22;35254;47.990;-1.608;2022-12-20T17:17:52;19.70;58.40
49379;DHT22;35254;47.990;-1.608;2022-12-20T17:20:19;19.70;58.10
49379;DHT22;35254;47.990;-1.608;2022-12-20T17:22:50;19.60;58.10
49379;DHT22;35254;47.990;-1.608;2022-12-20T17:25:38;19.60;57.80
49379;DHT22;35254;47.990;-1.608;2022-12-20T17:28:04;19.50;57.60
49379;DHT22;35254;47.990;-1.608;2022-12-20T17:30:30;19.60;60.00
49379;DHT22;35254;47.990;-1.608;2022-12-20T17:32:56;19.70;61.70
49379;DHT22;35254;47.990;-1.608;2022-12-20T17:35:31;19.70;63.00
49379;DHT22;35254;47.990;-1.608;2022-12-20T17:37:57;19.70;62.40
49379;DHT22;35254;47.990;-1.608;2022-12-20T17:40:25;19.70;64.70
49379;DHT22;35254;47.990;-1.608;2022-12-20T17:42:52;19.70;64.90
49379;DHT22;35254;47.990;-1.608;2022-12-20T17:45:27;19.70;64.60
49379;DHT22;35254;47.990;-1.608;2022-12-20T17:47:53;19.70;63.30
49379;DHT22;35254;47.990;-1.608;2022-12-20T17:50:19;19.70;63.90
49379;DHT22;35254;47.990;-1.608;2022-12-20T17:52:46;19.70;63.80
49379;DHT22;35254;47.990;-1.608;2022-12-20T17:55:18;19.70;63.90
49379;DHT22;35254;47.990;-1.608;2022-12-20T17:57:44;19.70;63.90